createdAt,value
2022-08-22T00:00:16.822Z,0.00
2022-08-22T00:01:15.340Z,0.00
2022-08-22T00:02:15.306Z,0.00
2022-08-22T00:02:46.653Z,0.00
2022-08-22T00:03:04.494Z,0.00
2022-08-22T00:03:07.259Z,0.00
2022-08-22T00:03:07.478Z,0.00
2022-08-22T00:03:09.412Z,0.00
2022-08-22T00:03:12.014Z,0.00
2022-08-22T00:03:12.194Z,0.00
2022-08-22T00:03:12.457Z,0.00
2022-08-22T00:03:12.822Z,0.00
2022-08-22T00:04:21.537Z,0.00
2022-08-22T00:05:15.235Z,0.00
2022-08-22T00:06:15.204Z,0.00
2022-08-22T00:07:16.164Z,0.00
2022-08-22T00:08:15.193Z,0.00
2022-08-22T00:09:15.186Z,0.00
2022-08-22T00:10:25.440Z,0.00
2022-08-22T00:11:15.218Z,0.00
2022-08-22T00:12:15.186Z,0.00
2022-08-22T00:13:15.273Z,0.00
2022-08-22T00:14:15.226Z,0.00
2022-08-22T00:15:43.159Z,0.00
2022-08-22T00:16:16.676Z,0.00
2022-08-22T00:17:15.413Z,0.00
2022-08-22T00:18:15.098Z,0.00
2022-08-22T00:19:15.057Z,0.00
2022-08-22T00:20:15.067Z,0.00
2022-08-22T00:21:21.309Z,0.00
2022-08-22T00:22:14.995Z,0.00
2022-08-22T00:23:15.085Z,0.00
2022-08-22T00:24:14.985Z,0.00
2022-08-22T00:25:24.581Z,0.00
2022-08-22T00:26:16.477Z,0.00
2022-08-22T00:27:21.232Z,0.00
2022-08-22T00:28:14.944Z,0.00
2022-08-22T00:29:14.917Z,0.00
2022-08-22T00:30:14.955Z,0.00
2022-08-22T00:31:14.895Z,0.00
2022-08-22T00:32:14.889Z,0.00
2022-08-22T00:33:21.156Z,0.00
2022-08-22T00:34:14.871Z,0.00
2022-08-22T00:35:15.817Z,0.00
2022-08-22T00:36:14.903Z,0.00
2022-08-22T00:37:14.907Z,0.00
2022-08-22T00:38:21.083Z,0.00
2022-08-22T00:39:14.777Z,0.00
2022-08-22T00:40:14.852Z,0.00
2022-08-22T00:41:14.759Z,0.00
2022-08-22T00:42:15.963Z,0.00
2022-08-22T00:43:16.255Z,0.00
2022-08-22T00:44:21.019Z,0.00
2022-08-22T00:45:14.761Z,0.00
2022-08-22T00:46:14.710Z,0.00
2022-08-22T00:47:14.700Z,0.00
2022-08-22T00:48:15.017Z,0.00
2022-08-22T00:49:14.707Z,0.00
2022-08-22T00:50:20.993Z,0.00
2022-08-22T00:51:14.797Z,0.00
2022-08-22T00:52:14.607Z,0.00
2022-08-22T00:53:14.921Z,0.00
2022-08-22T00:54:16.858Z,0.00
2022-08-22T00:55:20.895Z,0.00
2022-08-22T00:56:14.629Z,0.00
2022-08-22T00:57:14.847Z,0.00
2022-08-22T00:58:14.540Z,0.00
2022-08-22T00:59:22.836Z,0.00
2022-08-22T01:00:22.611Z,0.00
2022-08-22T01:01:14.588Z,0.00
2022-08-22T01:02:14.521Z,0.00
2022-08-22T01:03:14.609Z,0.00
2022-08-22T01:04:14.474Z,0.00
2022-08-22T01:05:14.509Z,0.00
2022-08-22T01:06:21.195Z,0.00
2022-08-22T01:07:14.498Z,0.00
2022-08-22T01:08:14.490Z,0.00
2022-08-22T01:09:14.412Z,0.00
2022-08-22T01:10:14.377Z,0.00
2022-08-22T01:11:21.536Z,0.00
2022-08-22T01:12:14.359Z,0.00
2022-08-22T01:13:16.228Z,0.00
2022-08-22T01:14:14.353Z,0.00
2022-08-22T01:15:14.345Z,0.00
2022-08-22T01:16:20.960Z,0.00
2022-08-22T01:17:14.375Z,0.00
2022-08-22T01:18:14.388Z,0.00
2022-08-22T01:19:14.282Z,0.00
2022-08-22T01:20:15.407Z,0.00
2022-08-22T01:21:14.251Z,0.00
2022-08-22T01:22:20.550Z,0.00
2022-08-22T01:23:14.256Z,0.00
2022-08-22T01:24:14.265Z,0.00
2022-08-22T01:25:14.207Z,0.00
2022-08-22T01:26:14.227Z,0.00
2022-08-22T01:27:14.215Z,0.00
2022-08-22T01:28:20.533Z,0.00
2022-08-22T01:29:14.437Z,0.00
2022-08-22T01:30:14.179Z,0.00
2022-08-22T01:31:14.184Z,0.00
2022-08-22T01:32:14.140Z,0.00
2022-08-22T01:33:21.776Z,0.00
2022-08-22T01:34:14.099Z,0.00
2022-08-22T01:35:14.137Z,0.00
2022-08-22T01:36:14.120Z,0.00
2022-08-22T01:37:14.115Z,0.00
2022-08-22T01:38:14.043Z,0.00
2022-08-22T01:39:20.791Z,0.00
2022-08-22T01:40:14.115Z,0.00
2022-08-22T01:41:14.005Z,0.00
2022-08-22T01:42:15.162Z,0.00
2022-08-22T01:43:14.001Z,0.00
2022-08-22T01:44:14.015Z,0.00
2022-08-22T01:45:21.300Z,0.00
2022-08-22T01:46:14.041Z,0.00
2022-08-22T01:47:15.414Z,0.00
2022-08-22T01:48:13.952Z,0.00
2022-08-22T01:49:13.889Z,0.00
2022-08-22T01:50:13.883Z,0.00
2022-08-22T01:51:20.278Z,0.00
2022-08-22T01:52:13.839Z,0.00
2022-08-22T01:53:13.823Z,0.00
2022-08-22T01:54:13.876Z,0.00
2022-08-22T01:55:14.803Z,0.00
2022-08-22T01:56:20.103Z,0.00
2022-08-22T01:57:13.802Z,0.00
2022-08-22T01:58:13.846Z,0.00
2022-08-22T01:59:13.763Z,0.00
2022-08-22T02:00:13.808Z,0.00
2022-08-22T02:01:20.076Z,0.00
2022-08-22T02:02:13.712Z,0.00
2022-08-22T02:03:13.746Z,0.00
2022-08-22T02:04:13.695Z,0.00
2022-08-22T02:05:13.706Z,0.00
2022-08-22T02:06:14.601Z,0.00
2022-08-22T02:07:19.949Z,0.00
2022-08-22T02:08:13.638Z,0.00
2022-08-22T02:09:13.674Z,0.00
2022-08-22T02:10:14.552Z,0.00
2022-08-22T02:11:13.600Z,0.00
2022-08-22T02:12:13.831Z,0.00
2022-08-22T02:13:21.427Z,0.00
2022-08-22T02:14:13.568Z,0.00
2022-08-22T02:15:13.567Z,0.00
2022-08-22T02:16:13.529Z,0.00
2022-08-22T02:17:13.712Z,0.00
2022-08-22T02:18:13.520Z,0.00
2022-08-22T02:19:20.778Z,0.00
2022-08-22T02:20:13.708Z,0.00
2022-08-22T02:21:13.460Z,0.00
2022-08-22T02:22:13.460Z,0.00
2022-08-22T02:23:13.464Z,0.00
2022-08-22T02:24:15.877Z,0.00
2022-08-22T02:25:13.432Z,0.00
2022-08-22T02:26:13.465Z,0.00
2022-08-22T02:27:13.400Z,0.00
2022-08-22T02:28:13.391Z,0.00
2022-08-22T02:29:13.449Z,0.00
2022-08-22T02:30:20.269Z,0.00
2022-08-22T02:31:16.942Z,0.00
2022-08-22T02:32:13.332Z,0.00
2022-08-22T02:33:13.600Z,0.00
2022-08-22T02:34:13.302Z,0.00
2022-08-22T02:35:13.350Z,0.00
2022-08-22T02:36:19.565Z,0.00
2022-08-22T02:37:14.551Z,0.00
2022-08-22T02:38:13.295Z,0.00
2022-08-22T02:39:13.573Z,0.00
2022-08-22T02:40:13.574Z,0.00
2022-08-22T02:41:13.541Z,0.00
2022-08-22T02:42:19.498Z,0.00
2022-08-22T02:43:13.472Z,0.00
2022-08-22T02:44:14.125Z,0.00
2022-08-22T02:45:13.502Z,0.00
2022-08-22T02:46:14.433Z,0.00
2022-08-22T02:47:19.463Z,0.00
2022-08-22T02:48:15.692Z,0.00
2022-08-22T02:49:13.158Z,0.00
2022-08-22T02:50:13.238Z,0.00
2022-08-22T02:51:13.139Z,0.00
2022-08-22T02:52:13.424Z,0.00
2022-08-22T02:53:19.383Z,0.00
2022-08-22T02:54:13.043Z,0.00
2022-08-22T02:55:13.042Z,0.00
2022-08-22T02:56:13.260Z,0.00
2022-08-22T02:57:14.279Z,0.00
2022-08-22T02:58:19.561Z,0.00
2022-08-22T02:59:13.009Z,0.00
2022-08-22T03:00:31.384Z,0.00
2022-08-22T03:01:14.784Z,0.00
2022-08-22T03:02:12.941Z,0.00
2022-08-22T03:03:12.943Z,0.00
2022-08-22T03:04:19.300Z,0.00
2022-08-22T03:05:12.947Z,0.00
2022-08-22T03:06:12.903Z,0.00
2022-08-22T03:07:12.875Z,0.00
2022-08-22T03:08:12.967Z,0.00
2022-08-22T03:09:12.845Z,0.00
2022-08-22T03:10:20.313Z,0.00
2022-08-22T03:11:13.488Z,0.00
2022-08-22T03:12:12.838Z,0.00
2022-08-22T03:13:12.793Z,0.00
2022-08-22T03:14:12.843Z,0.00
2022-08-22T03:15:12.829Z,0.00
2022-08-22T03:16:19.055Z,0.00
2022-08-22T03:17:12.753Z,0.00
2022-08-22T03:18:12.720Z,0.00
2022-08-22T03:19:14.963Z,0.00
2022-08-22T03:20:14.681Z,0.00
2022-08-22T03:21:12.704Z,0.00
2022-08-22T03:22:19.342Z,0.00
2022-08-22T03:23:12.668Z,0.00
2022-08-22T03:24:12.795Z,0.00
2022-08-22T03:25:12.716Z,0.00
2022-08-22T03:26:12.946Z,0.00
2022-08-22T03:27:12.615Z,0.00
2022-08-22T03:28:18.964Z,0.00
2022-08-22T03:29:12.698Z,0.00
2022-08-22T03:30:12.607Z,0.00
2022-08-22T03:31:12.559Z,0.00
2022-08-22T03:32:12.542Z,0.00
2022-08-22T03:33:12.832Z,4.00
2022-08-22T03:34:18.784Z,4.00
2022-08-22T03:35:12.803Z,4.00
2022-08-22T03:36:12.522Z,0.00
2022-08-22T03:37:12.791Z,4.00
2022-08-22T03:38:12.792Z,4.00
2022-08-22T03:40:31.806Z,8.00
2022-08-22T03:41:36.327Z,8.00
2022-08-22T03:43:05.234Z,8.00
2022-08-22T03:44:10.052Z,8.00
2022-08-22T03:44:27.932Z,12.00
2022-08-22T03:45:51.960Z,12.00
2022-08-22T03:47:02.919Z,12.00
2022-08-22T03:47:52.915Z,20.00
2022-08-22T03:48:33.917Z,20.00
2022-08-22T03:50:08.047Z,20.00
2022-08-22T03:50:26.950Z,24.00
2022-08-22T03:52:04.114Z,28.00
2022-08-22T03:52:51.744Z,32.00
2022-08-22T03:53:27.854Z,36.00
2022-08-22T03:55:02.950Z,36.00
2022-08-22T03:55:51.890Z,40.00
2022-08-22T03:56:30.888Z,48.00
2022-08-22T03:58:05.099Z,52.00
2022-08-22T03:58:51.924Z,52.00
2022-08-22T03:59:30.699Z,60.00
2022-08-22T04:00:39.239Z,64.00
2022-08-22T04:02:04.139Z,72.00
2022-08-22T04:02:43.318Z,76.00
2022-08-22T04:04:05.459Z,84.00
2022-08-22T04:04:26.720Z,92.00
2022-08-22T04:05:27.513Z,100.00
2022-08-22T04:06:26.733Z,108.00
2022-08-22T04:07:31.535Z,120.00
2022-08-22T04:08:29.030Z,128.00
2022-08-22T04:09:33.762Z,136.00
2022-08-22T04:10:29.454Z,148.00
2022-08-22T04:11:26.671Z,160.00
2022-08-22T04:12:26.622Z,176.00
2022-08-22T04:13:26.624Z,188.00
2022-08-22T04:14:26.625Z,204.00
2022-08-22T04:15:34.972Z,216.00
2022-08-22T04:16:27.873Z,232.00
2022-08-22T04:17:26.855Z,248.00
2022-08-22T04:18:27.536Z,264.00
2022-08-22T04:19:26.524Z,280.00
2022-08-22T04:20:33.243Z,296.00
2022-08-22T04:21:27.224Z,312.00
2022-08-22T04:22:26.487Z,328.00
2022-08-22T04:23:26.504Z,344.00
2022-08-22T04:24:26.479Z,360.00
2022-08-22T04:25:27.089Z,380.00
2022-08-22T04:26:32.808Z,392.00
2022-08-22T04:27:26.445Z,412.00
2022-08-22T04:28:27.207Z,428.00
2022-08-22T04:29:27.491Z,440.00
2022-08-22T04:30:26.422Z,456.00
2022-08-22T04:31:32.749Z,472.00
2022-08-22T04:32:26.351Z,488.00
2022-08-22T04:33:26.381Z,504.00
2022-08-22T04:34:26.350Z,516.00
2022-08-22T04:35:26.362Z,532.00
2022-08-22T04:36:28.441Z,552.00
2022-08-22T04:37:32.641Z,568.00
2022-08-22T04:38:26.383Z,576.00
2022-08-22T04:39:26.285Z,588.00
2022-08-22T04:40:26.264Z,600.00
2022-08-22T04:41:26.268Z,612.00
2022-08-22T04:42:33.410Z,620.00
2022-08-22T04:43:26.226Z,636.00
2022-08-22T04:44:26.284Z,648.00
2022-08-22T04:45:26.217Z,656.00
2022-08-22T04:46:26.199Z,668.00
2022-08-22T04:47:34.789Z,680.00
2022-08-22T04:48:26.192Z,692.00
2022-08-22T04:49:26.161Z,700.00
2022-08-22T04:50:26.143Z,708.00
2022-08-22T04:51:26.154Z,712.00
2022-08-22T04:52:34.585Z,716.00
2022-08-22T04:53:26.094Z,720.00
2022-08-22T04:54:26.313Z,732.00
2022-08-22T04:55:26.065Z,736.00
2022-08-22T04:56:26.071Z,744.00
2022-08-22T04:57:32.613Z,748.00
2022-08-22T04:58:26.025Z,760.00
2022-08-22T04:59:26.106Z,768.00
2022-08-22T05:00:26.001Z,776.00
2022-08-22T05:01:26.132Z,792.00
2022-08-22T05:02:32.261Z,804.00
2022-08-22T05:03:32.262Z,816.00
2022-08-22T05:04:25.955Z,828.00
2022-08-22T05:05:25.946Z,844.00
2022-08-22T05:06:25.998Z,852.00
2022-08-22T05:07:25.930Z,868.00
2022-08-22T05:08:25.909Z,888.00
2022-08-22T05:09:32.542Z,908.00
2022-08-22T05:10:25.868Z,928.00
2022-08-22T05:11:25.902Z,948.00
2022-08-22T05:12:25.927Z,968.00
2022-08-22T05:13:25.835Z,984.00
2022-08-22T05:14:25.954Z,1008.00
2022-08-22T05:15:32.143Z,1032.00
2022-08-22T05:16:25.822Z,1048.00
2022-08-22T05:17:25.791Z,1072.00
2022-08-22T05:18:29.712Z,1096.00
2022-08-22T05:19:31.322Z,1120.00
2022-08-22T05:20:27.264Z,1144.00
2022-08-22T05:21:32.026Z,1168.00
2022-08-22T05:22:25.730Z,1192.00
2022-08-22T05:23:25.703Z,1212.00
2022-08-22T05:24:28.012Z,1228.00
2022-08-22T05:25:25.687Z,1256.00
2022-08-22T05:26:25.685Z,1280.00
2022-08-22T05:27:31.962Z,1280.00
2022-08-22T05:28:25.694Z,1296.00
2022-08-22T05:29:25.655Z,1328.00
2022-08-22T05:30:25.626Z,1352.00
2022-08-22T05:31:25.642Z,1372.00
2022-08-22T05:32:31.938Z,1400.00
2022-08-22T05:33:25.612Z,1424.00
2022-08-22T05:34:25.674Z,1448.00
2022-08-22T05:35:25.553Z,1476.00
2022-08-22T05:36:25.581Z,1508.00
2022-08-22T05:37:25.557Z,1540.00
2022-08-22T05:38:32.093Z,1568.00
2022-08-22T05:39:25.549Z,1604.00
2022-08-22T05:40:25.506Z,1652.00
2022-08-22T05:41:25.477Z,1680.00
2022-08-22T05:42:25.568Z,1712.00
2022-08-22T05:43:25.474Z,1752.00
2022-08-22T05:44:31.731Z,1784.00
2022-08-22T05:45:25.737Z,1800.00
2022-08-22T05:46:26.849Z,1832.00
2022-08-22T05:47:25.494Z,1884.00
2022-08-22T05:48:25.398Z,1956.00
2022-08-22T05:49:31.652Z,2028.00
2022-08-22T05:50:25.503Z,2088.00
2022-08-22T05:51:25.355Z,2108.00
2022-08-22T05:52:25.382Z,2160.00
2022-08-22T05:53:25.325Z,2216.00
2022-08-22T05:54:34.301Z,2248.00
2022-08-22T05:55:25.353Z,2268.00
2022-08-22T05:56:25.651Z,2292.00
2022-08-22T05:57:25.287Z,2336.00
2022-08-22T05:58:25.276Z,2376.00
2022-08-22T05:59:25.255Z,2436.00
2022-08-22T06:00:31.530Z,2516.00
2022-08-22T06:01:25.263Z,2588.00
2022-08-22T06:02:25.219Z,2656.00
2022-08-22T06:03:25.218Z,2712.00
2022-08-22T06:04:25.224Z,2796.00
2022-08-22T06:05:25.189Z,2880.00
2022-08-22T06:06:31.535Z,2940.00
2022-08-22T06:07:25.175Z,3004.00
2022-08-22T06:08:26.384Z,3044.00
2022-08-22T06:09:25.128Z,3060.00
2022-08-22T06:10:26.620Z,3108.00
2022-08-22T06:11:33.959Z,3152.00
2022-08-22T06:12:25.087Z,3200.00
2022-08-22T06:13:25.534Z,3244.00
2022-08-22T06:14:25.077Z,3348.00
2022-08-22T06:15:25.051Z,3440.00
2022-08-22T06:16:31.323Z,3480.00
2022-08-22T06:17:25.036Z,3500.00
2022-08-22T06:18:25.023Z,3512.00
2022-08-22T06:19:25.005Z,3524.00
2022-08-22T06:20:24.985Z,3548.00
2022-08-22T06:21:24.988Z,3580.00
2022-08-22T06:22:31.293Z,3616.00
2022-08-22T06:23:25.284Z,3644.00
2022-08-22T06:24:24.966Z,3720.00
2022-08-22T06:25:24.931Z,3788.00
2022-08-22T06:26:24.925Z,3852.00
2022-08-22T06:27:31.471Z,3916.00
2022-08-22T06:28:24.895Z,3972.00
2022-08-22T06:29:24.957Z,4032.00
2022-08-22T06:30:24.869Z,4100.00
2022-08-22T06:31:24.909Z,4116.00
2022-08-22T06:32:58.330Z,4060.00
2022-08-22T06:33:25.840Z,4028.00
2022-08-22T06:34:24.823Z,4020.00
2022-08-22T06:35:24.810Z,4012.00
2022-08-22T06:36:24.866Z,4020.00
2022-08-22T06:37:24.825Z,4036.00
2022-08-22T06:38:31.095Z,4064.00
2022-08-22T06:39:24.775Z,4076.00
2022-08-22T06:40:24.795Z,4056.00
2022-08-22T06:41:24.728Z,4040.00
2022-08-22T06:42:25.067Z,4020.00
2022-08-22T06:43:31.067Z,3976.00
2022-08-22T06:44:24.688Z,3968.00
2022-08-22T06:45:24.723Z,3960.00
2022-08-22T06:46:24.677Z,3992.00
2022-08-22T06:47:24.669Z,4012.00
2022-08-22T06:48:24.630Z,4040.00
2022-08-22T06:49:30.948Z,4060.00
2022-08-22T06:50:24.661Z,4080.00
2022-08-22T06:51:24.603Z,4104.00
2022-08-22T06:52:24.627Z,4128.00
2022-08-22T06:53:24.573Z,4152.00
2022-08-22T06:54:24.635Z,4156.00
2022-08-22T06:55:30.852Z,4152.00
2022-08-22T06:56:24.531Z,4164.00
2022-08-22T06:57:24.516Z,4188.00
2022-08-22T06:58:25.464Z,4212.00
2022-08-22T06:59:26.034Z,4236.00
2022-08-22T07:00:24.475Z,4272.00
2022-08-22T07:01:30.812Z,4288.00
2022-08-22T07:02:24.468Z,4296.00
2022-08-22T07:03:24.482Z,4300.00
2022-08-22T07:04:24.442Z,4312.00
2022-08-22T07:05:24.420Z,4324.00
2022-08-22T07:06:24.429Z,4340.00
2022-08-22T07:07:24.441Z,4356.00
2022-08-22T07:08:25.312Z,4384.00
2022-08-22T07:09:24.391Z,4424.00
2022-08-22T07:10:24.380Z,4492.00
2022-08-22T07:11:24.613Z,4548.00
2022-08-22T07:12:24.397Z,4604.00
2022-08-22T07:13:30.607Z,4636.00
2022-08-22T07:14:24.311Z,4648.00
2022-08-22T07:15:24.310Z,4644.00
2022-08-22T07:16:24.319Z,4652.00
2022-08-22T07:17:24.415Z,4668.00
2022-08-22T07:18:30.541Z,4684.00
2022-08-22T07:19:24.640Z,4700.00
2022-08-22T07:20:24.351Z,4692.00
2022-08-22T07:21:24.229Z,4688.00
2022-08-22T07:22:24.221Z,4688.00
2022-08-22T07:23:24.257Z,4696.00
2022-08-22T07:24:30.512Z,4696.00
2022-08-22T07:25:24.246Z,4684.00
2022-08-22T07:26:24.159Z,4672.00
2022-08-22T07:27:24.161Z,4660.00
2022-08-22T07:28:36.704Z,4648.00
2022-08-22T07:29:32.566Z,4660.00
2022-08-22T07:30:28.113Z,4660.00
2022-08-22T07:31:24.887Z,4656.00
2022-08-22T07:32:24.084Z,4664.00
2022-08-22T07:33:27.048Z,4672.00
2022-08-22T07:34:24.081Z,4688.00
2022-08-22T07:35:30.603Z,4716.00
2022-08-22T07:36:26.457Z,4732.00
2022-08-22T07:37:24.049Z,4748.00
2022-08-22T07:38:24.027Z,4740.00
2022-08-22T07:39:23.980Z,4752.00
2022-08-22T07:40:24.296Z,4756.00
2022-08-22T07:41:30.344Z,4760.00
2022-08-22T07:42:29.732Z,4776.00
2022-08-22T07:43:24.930Z,4796.00
2022-08-22T07:44:23.917Z,4824.00
2022-08-22T07:45:23.923Z,4864.00
2022-08-22T07:46:30.202Z,4908.00
2022-08-22T07:47:26.394Z,4952.00
2022-08-22T07:48:26.213Z,5008.00
2022-08-22T07:49:23.850Z,5080.00
2022-08-22T07:50:24.904Z,5156.00
2022-08-22T07:51:30.111Z,5236.00
2022-08-22T07:52:23.848Z,5304.00
2022-08-22T07:53:23.841Z,5360.00
2022-08-22T07:54:27.214Z,5416.00
2022-08-22T07:55:23.784Z,5456.00
2022-08-22T07:56:30.077Z,5496.00
2022-08-22T07:57:23.810Z,5548.00
2022-08-22T07:58:24.721Z,5592.00
2022-08-22T07:59:23.998Z,5636.00
2022-08-22T08:00:23.852Z,5672.00
2022-08-22T08:01:30.056Z,5688.00
2022-08-22T08:02:24.065Z,5700.00
2022-08-22T08:03:23.667Z,5724.00
2022-08-22T08:04:23.677Z,5744.00
2022-08-22T08:05:23.676Z,5760.00
2022-08-22T08:06:23.745Z,5780.00
2022-08-22T08:07:55.472Z,5792.00
2022-08-22T08:09:18.723Z,5800.00
2022-08-22T08:10:53.331Z,5788.00
2022-08-22T08:11:42.777Z,5776.00
2022-08-22T08:13:39.752Z,5780.00
2022-08-22T08:15:22.998Z,5792.00
2022-08-22T08:15:43.064Z,5812.00
2022-08-22T08:17:21.786Z,5836.00
2022-08-22T08:17:40.634Z,5872.00
2022-08-22T08:19:04.118Z,5904.00
2022-08-22T08:20:18.416Z,5944.00
2022-08-22T08:20:40.705Z,5972.00
2022-08-22T08:22:21.231Z,5988.00
2022-08-22T08:22:39.321Z,5984.00
2022-08-22T08:24:47.818Z,5988.00
2022-08-22T08:26:27.431Z,5976.00
2022-08-22T08:26:55.670Z,5972.00
2022-08-22T08:28:35.900Z,6036.00
2022-08-22T08:30:40.692Z,6200.00
2022-08-22T08:32:24.141Z,6256.00
2022-08-22T08:32:42.264Z,6288.00
2022-08-22T08:34:22.194Z,6304.00
2022-08-22T08:34:42.599Z,6300.00
2022-08-22T08:36:52.609Z,6264.00
2022-08-22T08:38:17.731Z,6268.00
2022-08-22T08:39:35.004Z,6260.00
2022-08-22T08:39:49.891Z,6264.00
2022-08-22T08:41:25.842Z,6276.00
2022-08-22T08:42:29.444Z,6272.00
2022-08-22T08:42:47.196Z,6264.00
2022-08-22T08:44:18.961Z,6256.00
2022-08-22T08:45:24.416Z,6256.00
2022-08-22T08:46:27.352Z,6264.00
2022-08-22T08:46:55.378Z,6292.00
2022-08-22T08:48:33.276Z,6292.00
2022-08-22T08:48:52.273Z,6312.00
2022-08-22T08:50:25.101Z,6348.00
2022-08-22T08:51:23.511Z,6388.00
2022-08-22T08:52:00.234Z,6432.00
2022-08-22T08:53:25.149Z,6472.00
2022-08-22T08:54:13.556Z,6520.00
2022-08-22T08:55:22.887Z,6564.00
2022-08-22T08:55:48.144Z,6612.00
2022-08-22T08:57:53.854Z,6720.00
2022-08-22T08:59:34.391Z,6744.00
2022-08-22T08:59:52.824Z,6788.00
2022-08-22T09:00:51.332Z,6816.00
2022-08-22T09:01:51.355Z,6840.00
2022-08-22T09:02:51.391Z,6872.00
2022-08-22T09:03:51.506Z,6884.00
2022-08-22T09:04:52.305Z,6896.00
2022-08-22T09:05:51.532Z,6948.00
2022-08-22T09:06:56.592Z,6988.00
2022-08-22T09:07:59.215Z,7016.00
2022-08-22T09:08:55.506Z,7072.00
2022-08-22T09:09:52.265Z,7140.00
2022-08-22T09:10:51.198Z,7148.00
2022-08-22T09:11:51.204Z,7188.00
2022-08-22T09:13:11.834Z,7236.00
2022-08-22T09:13:52.685Z,7288.00
2022-08-22T09:14:51.245Z,7324.00
2022-08-22T09:15:58.663Z,7340.00
2022-08-22T09:16:52.659Z,7340.00
2022-08-22T09:17:51.171Z,7324.00
2022-08-22T09:18:57.507Z,7360.00
2022-08-22T09:19:51.116Z,7328.00
2022-08-22T09:20:51.906Z,7328.00
2022-08-22T09:21:51.067Z,7336.00
2022-08-22T09:22:51.086Z,7344.00
2022-08-22T09:23:53.389Z,7336.00
2022-08-22T09:24:57.701Z,7384.00
2022-08-22T09:25:51.023Z,7388.00
2022-08-22T09:26:51.053Z,7400.00
2022-08-22T09:27:50.995Z,7400.00
2022-08-22T09:28:50.985Z,7384.00
2022-08-22T09:29:59.683Z,7392.00
2022-08-22T09:30:54.293Z,7456.00
2022-08-22T09:31:52.139Z,7396.00
2022-08-22T09:32:50.959Z,7396.00
2022-08-22T09:33:51.779Z,7336.00
2022-08-22T09:34:50.900Z,7268.00
2022-08-22T09:35:57.200Z,7232.00
2022-08-22T09:36:50.920Z,7232.00
2022-08-22T09:37:50.948Z,7224.00
2022-08-22T09:38:50.849Z,7244.00
2022-08-22T09:39:50.909Z,7236.00
2022-08-22T09:40:50.846Z,7252.00
2022-08-22T09:41:57.528Z,7276.00
2022-08-22T09:42:50.849Z,7376.00
2022-08-22T09:43:51.048Z,7388.00
2022-08-22T09:44:50.801Z,7412.00
2022-08-22T09:45:50.787Z,7428.00
2022-08-22T09:46:57.007Z,7424.00
2022-08-22T09:47:50.717Z,7424.00
2022-08-22T09:48:50.735Z,7436.00
2022-08-22T09:49:50.926Z,7456.00
2022-08-22T09:50:52.761Z,7464.00
2022-08-22T09:51:57.050Z,7484.00
2022-08-22T09:52:50.649Z,7508.00
2022-08-22T09:53:50.680Z,7524.00
2022-08-22T09:54:50.665Z,7516.00
2022-08-22T09:55:50.627Z,7512.00
2022-08-22T09:56:56.903Z,7448.00
2022-08-22T09:57:50.606Z,7424.00
2022-08-22T09:58:50.932Z,7392.00
2022-08-22T09:59:50.565Z,7348.00
2022-08-22T10:00:54.578Z,7264.00
2022-08-22T10:01:50.568Z,7156.00
2022-08-22T10:02:57.133Z,7028.00
2022-08-22T10:03:50.567Z,6992.00
2022-08-22T10:04:50.532Z,7016.00
2022-08-22T10:05:50.520Z,7028.00
2022-08-22T10:06:50.472Z,7052.00
2022-08-22T10:07:56.872Z,7044.00
2022-08-22T10:08:50.457Z,7000.00
2022-08-22T10:09:54.936Z,6920.00
2022-08-22T10:10:52.240Z,6856.00
2022-08-22T10:11:51.411Z,6836.00
2022-08-22T10:12:50.441Z,6888.00
2022-08-22T10:14:00.617Z,6960.00
2022-08-22T10:14:50.659Z,7060.00
2022-08-22T10:15:50.388Z,7144.00
2022-08-22T10:16:50.434Z,7188.00
2022-08-22T10:17:50.382Z,7208.00
2022-08-22T10:19:00.546Z,7200.00
2022-08-22T10:19:50.311Z,7184.00
2022-08-22T10:20:50.322Z,7212.00
2022-08-22T10:21:50.546Z,7224.00
2022-08-22T10:22:50.263Z,7216.00
2022-08-22T10:23:50.266Z,7236.00
2022-08-22T10:24:56.586Z,7264.00
2022-08-22T10:25:50.248Z,7296.00
2022-08-22T10:26:50.256Z,7316.00
2022-08-22T10:27:50.502Z,7324.00
2022-08-22T10:28:50.225Z,7320.00
2022-08-22T10:29:57.471Z,7304.00
2022-08-22T10:30:50.164Z,7248.00
2022-08-22T10:31:59.091Z,7192.00
2022-08-22T10:32:51.646Z,7100.00
2022-08-22T10:33:50.145Z,7060.00
2022-08-22T10:34:50.117Z,6916.00
2022-08-22T10:35:56.367Z,6776.00
2022-08-22T10:36:50.109Z,6640.00
2022-08-22T10:37:50.367Z,6516.00
2022-08-22T10:38:50.069Z,6408.00
2022-08-22T10:39:50.155Z,6348.00
2022-08-22T10:40:50.079Z,6368.00
2022-08-22T10:41:56.326Z,6368.00
2022-08-22T10:42:50.307Z,6400.00
2022-08-22T10:44:00.936Z,6404.00
2022-08-22T10:44:51.519Z,6420.00
2022-08-22T10:45:49.983Z,6396.00
2022-08-22T10:46:49.986Z,6376.00
2022-08-22T10:47:56.299Z,6392.00
2022-08-22T10:48:49.918Z,6484.00
2022-08-22T10:49:51.258Z,6572.00
2022-08-22T10:50:50.868Z,6692.00
2022-08-22T10:51:50.248Z,6876.00
2022-08-22T10:52:56.329Z,6984.00
2022-08-22T10:53:49.886Z,7016.00
2022-08-22T10:54:49.869Z,7004.00
2022-08-22T10:55:49.899Z,7092.00
2022-08-22T10:56:49.848Z,7108.00
2022-08-22T10:57:52.819Z,7180.00
2022-08-22T10:58:56.165Z,7260.00
2022-08-22T10:59:49.800Z,7212.00
2022-08-22T11:00:50.349Z,7236.00
2022-08-22T11:01:49.855Z,7216.00
2022-08-22T11:02:49.776Z,7300.00
2022-08-22T11:03:49.738Z,7664.00
2022-08-22T11:04:56.091Z,7760.00
2022-08-22T11:05:50.742Z,7312.00
2022-08-22T11:06:49.734Z,7288.00
2022-08-22T11:07:50.242Z,7488.00
2022-08-22T11:08:49.745Z,7716.00
2022-08-22T11:09:49.697Z,7816.00
2022-08-22T11:10:55.955Z,7676.00
2022-08-22T11:11:49.717Z,7584.00
2022-08-22T11:12:49.700Z,7356.00
2022-08-22T11:13:49.632Z,7256.00
2022-08-22T11:14:49.617Z,7276.00
2022-08-22T11:15:55.880Z,7272.00
2022-08-22T11:16:55.009Z,7272.00
2022-08-22T11:17:54.155Z,7268.00
2022-08-22T11:19:01.820Z,7224.00
2022-08-22T11:19:51.154Z,7060.00
2022-08-22T11:20:49.530Z,6872.00
2022-08-22T11:21:55.820Z,6688.00
2022-08-22T11:22:49.824Z,6444.00
2022-08-22T11:23:50.989Z,6192.00
2022-08-22T11:24:55.743Z,6056.00
2022-08-22T11:25:52.593Z,5920.00
2022-08-22T11:26:49.475Z,5784.00
2022-08-22T11:27:55.770Z,5580.00
2022-08-22T11:28:50.756Z,5476.00
2022-08-22T11:29:49.400Z,5464.00
2022-08-22T11:30:50.356Z,5508.00
2022-08-22T11:31:51.974Z,5600.00
2022-08-22T11:32:49.523Z,5724.00
2022-08-22T11:33:55.675Z,5904.00
2022-08-22T11:34:49.345Z,6096.00
2022-08-22T11:35:49.327Z,6252.00
2022-08-22T11:36:50.181Z,6364.00
2022-08-22T11:37:54.924Z,6400.00
2022-08-22T11:38:49.315Z,6236.00
2022-08-22T11:39:55.679Z,6072.00
2022-08-22T11:40:49.306Z,6072.00
2022-08-22T11:41:52.270Z,6116.00
2022-08-22T11:42:49.227Z,6208.00
2022-08-22T11:43:49.257Z,6336.00
2022-08-22T11:44:50.481Z,6456.00
2022-08-22T11:45:55.484Z,6636.00
2022-08-22T11:46:49.526Z,6756.00
2022-08-22T11:47:49.159Z,7068.00
2022-08-22T11:48:49.155Z,7432.00
2022-08-22T11:49:50.121Z,7564.00
2022-08-22T11:50:56.343Z,7756.00
2022-08-22T11:51:49.498Z,7820.00
2022-08-22T11:52:51.647Z,7776.00
2022-08-22T11:53:49.136Z,7712.00
2022-08-22T11:54:49.863Z,7576.00
2022-08-22T11:55:49.070Z,7436.00
2022-08-22T11:56:56.230Z,7348.00
2022-08-22T11:57:49.056Z,7308.00
2022-08-22T11:58:49.077Z,7316.00
2022-08-22T11:59:49.995Z,7624.00
2022-08-22T12:00:48.989Z,8008.00
2022-08-22T12:01:49.085Z,8232.00
2022-08-22T12:02:55.276Z,8416.00
2022-08-22T12:03:55.637Z,8560.00
2022-08-22T12:04:50.496Z,8504.00
2022-08-22T12:05:48.963Z,8308.00
2022-08-22T12:06:49.718Z,8184.00
2022-08-22T12:07:49.253Z,8156.00
2022-08-22T12:08:55.246Z,7968.00
2022-08-22T12:09:49.195Z,7820.00
2022-08-22T12:10:49.205Z,7608.00
2022-08-22T12:11:48.870Z,7756.00
2022-08-22T12:12:48.872Z,7740.00
2022-08-22T12:13:48.831Z,7888.00
2022-08-22T12:14:55.222Z,8356.00
2022-08-22T12:15:48.997Z,9004.00
2022-08-22T12:16:50.355Z,9432.00
2022-08-22T12:17:55.766Z,9568.00
2022-08-22T12:18:52.717Z,9404.00
2022-08-22T12:20:14.973Z,9328.00
2022-08-22T12:20:52.243Z,8952.00
2022-08-22T12:21:49.570Z,8748.00
2022-08-22T12:22:49.804Z,8648.00
2022-08-22T12:23:50.314Z,8596.00
2022-08-22T12:24:48.735Z,8404.00
2022-08-22T12:25:55.314Z,8312.00
2022-08-22T12:26:48.671Z,8280.00
2022-08-22T12:27:54.108Z,7976.00
2022-08-22T12:28:50.140Z,7988.00
2022-08-22T12:29:49.459Z,7968.00
2022-08-22T12:30:48.928Z,7988.00